sensor_id;sensor_type;location;lat;lon;timestamp;pressure;altitude;pressure_sealevel;temperature;humidity
51452;BME280;37521;52.020;-1.740;2023-07-16T00:00:57;98499.91;;;11.96;100.00
51452;BME280;37521;52.020;-1.740;2023-07-16T00:03:25;98509.88;;;11.93;100.00
51452;BME280;37521;52.020;-1.740;2023-07-16T00:05:55;98510.97;;;11.90;100.00
51452;BME280;37521;52.020;-1.740;2023-07-16T00:08:23;98503.97;;;11.89;100.00
51452;BME280;37521;52.020;-1.740;2023-07-16T00:10:52;98510.34;;;11.87;100.00
51452;BME280;37521;52.020;-1.740;2023-07-16T00:13:20;98509.50;;;11.86;100.00
51452;BME280;37521;52.020;-1.740;2023-07-16T00:15:49;98515.50;;;11.88;100.00
51452;BME280;37521;52.020;-1.740;2023-07-16T00:18:17;98523.44;;;11.88;100.00
51452;BME280;37521;52.020;-1.740;2023-07-16T00:20:46;98514.56;;;11.89;100.00
51452;BME280;37521;52.020;-1.740;2023-07-16T00:23:16;98523.69;;;11.85;100.00
51452;BME280;37521;52.020;-1.740;2023-07-16T00:25:44;98513.72;;;11.89;100.00
51452;BME280;37521;52.020;-1.740;2023-07-16T00:28:13;98519.84;;;11.89;100.00
51452;BME280;37521;52.020;-1.740;2023-07-16T00:30:41;98514.69;;;11.88;100.00
51452;BME280;37521;52.020;-1.740;2023-07-16T00:33:10;98514.56;;;11.89;100.00
51452;BME280;37521;52.020;-1.740;2023-07-16T00:35:38;98520.09;;;11.86;100.00
51452;BME280;37521;52.020;-1.740;2023-07-16T00:38:07;98519.84;;;11.89;100.00
51452;BME280;37521;52.020;-1.740;2023-07-16T00:40:36;98520.31;;;11.83;100.00
51452;BME280;37521;52.020;-1.740;2023-07-16T00:43:05;98515.22;;;11.80;100.00
51452;BME280;37521;52.020;-1.740;2023-07-16T00:45:34;98514.50;;;11.78;100.00
51452;BME280;37521;52.020;-1.740;2023-07-16T00:48:04;98509.94;;;11.80;100.00
51452;BME280;37521;52.020;-1.740;2023-07-16T00:50:34;98516.94;;;11.81;100.00
51452;BME280;37521;52.020;-1.740;2023-07-16T00:53:06;98527.31;;;11.84;100.00
51452;BME280;37521;52.020;-1.740;2023-07-16T00:55:37;98531.50;;;11.87;100.00
51452;BME280;37521;52.020;-1.740;2023-07-16T00:58:07;98527.69;;;11.91;100.00
51452;BME280;37521;52.020;-1.740;2023-07-16T01:00:37;98524.91;;;11.92;100.00
51452;BME280;37521;52.020;-1.740;2023-07-16T01:03:08;98535.50;;;11.92;100.00
51452;BME280;37521;52.020;-1.740;2023-07-16T01:05:44;98541.75;;;11.91;100.00
51452;BME280;37521;52.020;-1.740;2023-07-16T01:08:18;98539.31;;;11.88;100.00
51452;BME280;37521;52.020;-1.740;2023-07-16T01:10:50;98538.59;;;11.86;100.00
51452;BME280;37521;52.020;-1.740;2023-07-16T01:13:19;98539.09;;;11.91;100.00
51452;BME280;37521;52.020;-1.740;2023-07-16T01:15:50;98540.53;;;11.95;100.00
51452;BME280;37521;52.020;-1.740;2023-07-16T01:18:18;98540.53;;;11.95;100.00
51452;BME280;37521;52.020;-1.740;2023-07-16T01:20:47;98545.00;;;11.95;100.00
51452;BME280;37521;52.020;-1.740;2023-07-16T01:23:39;98565.09;;;11.97;100.00
51452;BME280;37521;52.020;-1.740;2023-07-16T01:26:30;98553.78;;;11.95;100.00
51452;BME280;37521;52.020;-1.740;2023-07-16T01:29:21;98567.25;;;11.92;100.00
51452;BME280;37521;52.020;-1.740;2023-07-16T01:31:56;98570.00;;;11.91;100.00
51452;BME280;37521;52.020;-1.740;2023-07-16T01:34:28;98571.28;;;11.85;100.00
51452;BME280;37521;52.020;-1.740;2023-07-16T01:36:57;98573.19;;;11.83;100.00
51452;BME280;37521;52.020;-1.740;2023-07-16T01:39:25;98570.66;;;11.82;100.00
51452;BME280;37521;52.020;-1.740;2023-07-16T01:41:55;98577.84;;;11.80;100.00
51452;BME280;37521;52.020;-1.740;2023-07-16T01:44:25;98577.00;;;11.79;100.00
51452;BME280;37521;52.020;-1.740;2023-07-16T01:47:04;98583.59;;;11.73;100.00
51452;BME280;37521;52.020;-1.740;2023-07-16T01:49:34;98590.16;;;11.68;100.00
51452;BME280;37521;52.020;-1.740;2023-07-16T01:52:03;98597.38;;;11.66;100.00
51452;BME280;37521;52.020;-1.740;2023-07-16T01:54:32;98602.88;;;11.63;100.00
51452;BME280;37521;52.020;-1.740;2023-07-16T01:57:01;98606.47;;;11.62;100.00
51452;BME280;37521;52.020;-1.740;2023-07-16T01:59:31;98613.88;;;11.57;100.00
51452;BME280;37521;52.020;-1.740;2023-07-16T02:02:00;98617.72;;;11.53;100.00
51452;BME280;37521;52.020;-1.740;2023-07-16T02:04:28;98618.44;;;11.55;100.00
51452;BME280;37521;52.020;-1.740;2023-07-16T02:06:58;98610.53;;;11.55;100.00
51452;BME280;37521;52.020;-1.740;2023-07-16T02:09:26;98614.84;;;11.56;100.00
51452;BME280;37521;52.020;-1.740;2023-07-16T02:11:55;98622.78;;;11.56;100.00
51452;BME280;37521;52.020;-1.740;2023-07-16T02:14:23;98616.53;;;11.57;100.00
51452;BME280;37521;52.020;-1.740;2023-07-16T02:16:53;98631.66;;;11.55;100.00
51452;BME280;37521;52.020;-1.740;2023-07-16T02:19:22;98634.56;;;11.52;100.00
51452;BME280;37521;52.020;-1.740;2023-07-16T02:21:50;98623.13;;;11.51;100.00
51452;BME280;37521;52.020;-1.740;2023-07-16T02:24:18;98631.38;;;11.46;100.00
51452;BME280;37521;52.020;-1.740;2023-07-16T02:26:50;98632.53;;;11.42;100.00
51452;BME280;37521;52.020;-1.740;2023-07-16T02:29:19;98633.31;;;11.44;100.00
51452;BME280;37521;52.020;-1.740;2023-07-16T02:31:47;98640.16;;;11.47;100.00
51452;BME280;37521;52.020;-1.740;2023-07-16T02:34:17;98637.50;;;11.47;100.00
51452;BME280;37521;52.020;-1.740;2023-07-16T02:36:46;98635.19;;;11.42;100.00
51452;BME280;37521;52.020;-1.740;2023-07-16T02:39:13;98630.66;;;11.44;100.00
51452;BME280;37521;52.020;-1.740;2023-07-16T02:41:42;98638.59;;;11.44;100.00
51452;BME280;37521;52.020;-1.740;2023-07-16T02:44:10;98636.16;;;11.41;100.00
51452;BME280;37521;52.020;-1.740;2023-07-16T02:46:41;98638.78;;;11.41;100.00
51452;BME280;37521;52.020;-1.740;2023-07-16T02:49:11;98647.78;;;11.39;100.00
51452;BME280;37521;52.020;-1.740;2023-07-16T02:51:41;98656.75;;;11.36;100.00
51452;BME280;37521;52.020;-1.740;2023-07-16T02:54:09;98656.03;;;11.34;100.00
51452;BME280;37521;52.020;-1.740;2023-07-16T02:56:38;98651.59;;;11.35;100.00
51452;BME280;37521;52.020;-1.740;2023-07-16T02:59:06;98658.47;;;11.37;100.00
51452;BME280;37521;52.020;-1.740;2023-07-16T03:01:35;98666.19;;;11.40;100.00
51452;BME280;37521;52.020;-1.740;2023-07-16T03:04:04;98659.22;;;11.39;100.00
51452;BME280;37521;52.020;-1.740;2023-07-16T03:06:32;98668.94;;;11.39;100.00
51452;BME280;37521;52.020;-1.740;2023-07-16T03:09:02;98667.44;;;11.35;100.00
51452;BME280;37521;52.020;-1.740;2023-07-16T03:11:31;98678.25;;;11.32;100.00
51452;BME280;37521;52.020;-1.740;2023-07-16T03:13:59;98675.94;;;11.27;100.00
51452;BME280;37521;52.020;-1.740;2023-07-16T03:16:28;98676.88;;;11.26;100.00
51452;BME280;37521;52.020;-1.740;2023-07-16T03:18:56;98684.81;;;11.26;100.00
51452;BME280;37521;52.020;-1.740;2023-07-16T03:21:29;98689.25;;;11.26;100.00
51452;BME280;37521;52.020;-1.740;2023-07-16T03:23:58;98690.09;;;11.26;100.00
51452;BME280;37521;52.020;-1.740;2023-07-16T03:26:28;98689.38;;;11.24;100.00
51452;BME280;37521;52.020;-1.740;2023-07-16T03:28:57;98701.63;;;11.25;100.00
51452;BME280;37521;52.020;-1.740;2023-07-16T03:31:26;98688.41;;;11.25;100.00
51452;BME280;37521;52.020;-1.740;2023-07-16T03:33:56;98685.75;;;11.25;100.00
51452;BME280;37521;52.020;-1.740;2023-07-16T03:36:28;98697.06;;;11.27;100.00
51452;BME280;37521;52.020;-1.740;2023-07-16T03:38:57;98697.06;;;11.27;100.00
51452;BME280;37521;52.020;-1.740;2023-07-16T03:41:25;98698.97;;;11.25;100.00
51452;BME280;37521;52.020;-1.740;2023-07-16T03:43:56;98720.13;;;11.25;100.00
51452;BME280;37521;52.020;-1.740;2023-07-16T03:46:24;98715.56;;;11.27;100.00
51452;BME280;37521;52.020;-1.740;2023-07-16T03:48:53;98718.19;;;11.27;100.00
51452;BME280;37521;52.020;-1.740;2023-07-16T03:51:22;98729.84;;;11.25;100.00
51452;BME280;37521;52.020;-1.740;2023-07-16T03:53:53;98723.91;;;11.21;100.00
51452;BME280;37521;52.020;-1.740;2023-07-16T03:56:22;98733.88;;;11.17;100.00
51452;BME280;37521;52.020;-1.740;2023-07-16T03:58:51;98735.13;;;11.12;100.00
51452;BME280;37521;52.020;-1.740;2023-07-16T04:01:20;98735.13;;;11.12;100.00
51452;BME280;37521;52.020;-1.740;2023-07-16T04:03:50;98733.22;;;11.14;100.00
51452;BME280;37521;52.020;-1.740;2023-07-16T04:06:20;98741.44;;;11.22;100.00
51452;BME280;37521;52.020;-1.740;2023-07-16T04:08:49;98745.47;;;11.28;100.00
51452;BME280;37521;52.020;-1.740;2023-07-16T04:11:18;98753.94;;;11.33;100.00
51452;BME280;37521;52.020;-1.740;2023-07-16T04:13:46;98761.00;;;11.32;100.00
51452;BME280;37521;52.020;-1.740;2023-07-16T04:16:14;98761.00;;;11.32;100.00
51452;BME280;37521;52.020;-1.740;2023-07-16T04:18:45;98763.66;;;11.32;100.00
51452;BME280;37521;52.020;-1.740;2023-07-16T04:21:13;98765.22;;;11.35;100.00
51452;BME280;37521;52.020;-1.740;2023-07-16T04:23:42;98767.25;;;11.31;100.00
51452;BME280;37521;52.020;-1.740;2023-07-16T04:26:10;98762.16;;;11.28;100.00
51452;BME280;37521;52.020;-1.740;2023-07-16T04:28:39;98769.38;;;11.26;100.00
51452;BME280;37521;52.020;-1.740;2023-07-16T04:31:07;98761.53;;;11.25;100.00
51452;BME280;37521;52.020;-1.740;2023-07-16T04:33:36;98768.41;;;11.27;100.00
51452;BME280;37521;52.020;-1.740;2023-07-16T04:36:06;98768.72;;;11.35;100.00
51452;BME280;37521;52.020;-1.740;2023-07-16T04:38:34;98764.91;;;11.39;100.00
51452;BME280;37521;52.020;-1.740;2023-07-16T04:41:03;98774.22;;;11.45;100.00
51452;BME280;37521;52.020;-1.740;2023-07-16T04:43:31;98788.47;;;11.42;100.00
51452;BME280;37521;52.020;-1.740;2023-07-16T04:46:00;98782.03;;;11.46;100.00
51452;BME280;37521;52.020;-1.740;2023-07-16T04:48:28;98784.38;;;11.51;100.00
51452;BME280;37521;52.020;-1.740;2023-07-16T04:50:56;98786.78;;;11.54;100.00
51452;BME280;37521;52.020;-1.740;2023-07-16T04:53:26;98791.22;;;11.54;100.00
51452;BME280;37521;52.020;-1.740;2023-07-16T04:55:55;98794.94;;;11.51;100.00
51452;BME280;37521;52.020;-1.740;2023-07-16T04:58:24;98793.88;;;11.54;100.00
51452;BME280;37521;52.020;-1.740;2023-07-16T05:00:52;98801.06;;;11.52;100.00
51452;BME280;37521;52.020;-1.740;2023-07-16T05:03:21;98794.94;;;11.51;100.00
51452;BME280;37521;52.020;-1.740;2023-07-16T05:05:51;98797.59;;;11.51;100.00
51452;BME280;37521;52.020;-1.740;2023-07-16T05:08:20;98803.06;;;11.48;100.00
51452;BME280;37521;52.020;-1.740;2023-07-16T05:10:50;98803.19;;;11.46;100.00
51452;BME280;37521;52.020;-1.740;2023-07-16T05:13:18;98807.31;;;11.51;100.00
51452;BME280;37521;52.020;-1.740;2023-07-16T05:15:47;98804.69;;;11.51;100.00
51452;BME280;37521;52.020;-1.740;2023-07-16T05:18:16;98815.97;;;11.53;100.00
51452;BME280;37521;52.020;-1.740;2023-07-16T05:20:46;98822.72;;;11.57;100.00
51452;BME280;37521;52.020;-1.740;2023-07-16T05:23:15;98822.53;;;11.60;100.00
51452;BME280;37521;52.020;-1.740;2023-07-16T05:25:46;98825.19;;;11.60;100.00
51452;BME280;37521;52.020;-1.740;2023-07-16T05:28:16;98826.88;;;11.61;100.00
51452;BME280;37521;52.020;-1.740;2023-07-16T05:30:44;98824.94;;;11.63;100.00
51452;BME280;37521;52.020;-1.740;2023-07-16T05:33:13;98841.78;;;11.62;100.00
51452;BME280;37521;52.020;-1.740;2023-07-16T05:35:42;98843.69;;;11.60;100.00
51452;BME280;37521;52.020;-1.740;2023-07-16T05:38:10;98845.50;;;11.59;100.00
51452;BME280;37521;52.020;-1.740;2023-07-16T05:40:38;98846.88;;;11.65;100.00
51452;BME280;37521;52.020;-1.740;2023-07-16T05:43:07;98857.75;;;11.73;100.00
51452;BME280;37521;52.020;-1.740;2023-07-16T05:45:37;98866.03;;;11.81;100.00
51452;BME280;37521;52.020;-1.740;2023-07-16T05:48:05;98862.00;;;11.88;100.00
51452;BME280;37521;52.020;-1.740;2023-07-16T05:50:34;98860.72;;;11.94;100.00
51452;BME280;37521;52.020;-1.740;2023-07-16T05:53:03;98855.84;;;12.00;100.00
51452;BME280;37521;52.020;-1.740;2023-07-16T05:55:31;98859.97;;;12.05;100.00
51452;BME280;37521;52.020;-1.740;2023-07-16T05:58:00;98863.25;;;12.08;100.00
51452;BME280;37521;52.020;-1.740;2023-07-16T06:00:28;98867.69;;;12.08;100.00
51452;BME280;37521;52.020;-1.740;2023-07-16T06:02:58;98870.56;;;12.05;100.00
51452;BME280;37521;52.020;-1.740;2023-07-16T06:05:28;98878.69;;;12.02;100.00
51452;BME280;37521;52.020;-1.740;2023-07-16T06:08:01;98878.94;;;11.98;100.00
51452;BME280;37521;52.020;-1.740;2023-07-16T06:10:29;98884.34;;;11.97;100.00
51452;BME280;37521;52.020;-1.740;2023-07-16T06:12:58;98878.94;;;11.98;100.00
51452;BME280;37521;52.020;-1.740;2023-07-16T06:15:26;98893.63;;;12.03;100.00
51452;BME280;37521;52.020;-1.740;2023-07-16T06:17:55;98899.25;;;12.11;100.00
51452;BME280;37521;52.020;-1.740;2023-07-16T06:20:24;98900.94;;;12.12;100.00
51452;BME280;37521;52.020;-1.740;2023-07-16T06:22:53;98900.94;;;12.12;100.00
51452;BME280;37521;52.020;-1.740;2023-07-16T06:25:21;98902.81;;;12.10;100.00
51452;BME280;37521;52.020;-1.740;2023-07-16T06:27:50;98898.59;;;12.07;100.00
51452;BME280;37521;52.020;-1.740;2023-07-16T06:30:18;98912.13;;;12.03;100.00
51452;BME280;37521;52.020;-1.740;2023-07-16T06:32:47;98900.22;;;11.97;100.00
51452;BME280;37521;52.020;-1.740;2023-07-16T06:35:16;98907.06;;;11.99;100.00
51452;BME280;37521;52.020;-1.740;2023-07-16T06:37:45;98904.72;;;12.08;100.00
51452;BME280;37521;52.020;-1.740;2023-07-16T06:40:14;98912.88;;;12.17;100.00
51452;BME280;37521;52.020;-1.740;2023-07-16T06:42:43;98912.34;;;12.25;100.00
51452;BME280;37521;52.020;-1.740;2023-07-16T06:45:11;98920.56;;;12.33;100.00
51452;BME280;37521;52.020;-1.740;2023-07-16T06:47:40;98919.19;;;12.40;100.00
51452;BME280;37521;52.020;-1.740;2023-07-16T06:50:09;98933.91;;;12.44;100.00
51452;BME280;37521;52.020;-1.740;2023-07-16T06:52:37;98931.03;;;12.47;100.00
51452;BME280;37521;52.020;-1.740;2023-07-16T06:55:08;98933.69;;;12.47;100.00
51452;BME280;37521;52.020;-1.740;2023-07-16T06:57:36;98939.50;;;12.52;100.00
51452;BME280;37521;52.020;-1.740;2023-07-16T07:00:06;98936.63;;;12.55;100.00
51452;BME280;37521;52.020;-1.740;2023-07-16T07:02:38;98955.78;;;12.59;100.00
51452;BME280;37521;52.020;-1.740;2023-07-16T07:05:07;98948.47;;;12.63;100.00
51452;BME280;37521;52.020;-1.740;2023-07-16T07:07:35;98960.97;;;12.61;100.00
51452;BME280;37521;52.020;-1.740;2023-07-16T07:10:04;98962.22;;;12.68;100.00
51452;BME280;37521;52.020;-1.740;2023-07-16T07:12:34;98968.16;;;12.71;100.00
51452;BME280;37521;52.020;-1.740;2023-07-16T07:15:06;98971.09;;;12.79;100.00
51452;BME280;37521;52.020;-1.740;2023-07-16T07:17:35;98975.97;;;12.86;100.00
51452;BME280;37521;52.020;-1.740;2023-07-16T07:20:04;98983.34;;;12.93;100.00
51452;BME280;37521;52.020;-1.740;2023-07-16T07:22:33;98985.44;;;13.01;100.00
51452;BME280;37521;52.020;-1.740;2023-07-16T07:25:02;98995.28;;;13.12;100.00
51452;BME280;37521;52.020;-1.740;2023-07-16T07:27:31;98997.47;;;13.18;100.00
51452;BME280;37521;52.020;-1.740;2023-07-16T07:30:01;99006.13;;;13.32;100.00
51452;BME280;37521;52.020;-1.740;2023-07-16T07:32:29;98999.31;;;13.41;100.00
51452;BME280;37521;52.020;-1.740;2023-07-16T07:34:58;99007.78;;;13.46;100.00
51452;BME280;37521;52.020;-1.740;2023-07-16T07:37:29;99001.97;;;13.41;100.00
51452;BME280;37521;52.020;-1.740;2023-07-16T07:39:58;99013.53;;;13.40;100.00
51452;BME280;37521;52.020;-1.740;2023-07-16T07:42:27;99012.44;;;13.43;100.00
51452;BME280;37521;52.020;-1.740;2023-07-16T07:44:57;99019.03;;;13.37;100.00
51452;BME280;37521;52.020;-1.740;2023-07-16T07:47:27;99015.25;;;13.28;100.00
51452;BME280;37521;52.020;-1.740;2023-07-16T07:49:55;99014.09;;;13.20;100.00
51452;BME280;37521;52.020;-1.740;2023-07-16T07:52:26;99020.81;;;13.25;100.00
51452;BME280;37521;52.020;-1.740;2023-07-16T07:54:59;99022.44;;;13.39;100.00
51452;BME280;37521;52.020;-1.740;2023-07-16T07:57:28;99021.31;;;13.54;100.00
51452;BME280;37521;52.020;-1.740;2023-07-16T07:59:57;99022.59;;;13.73;100.00
51452;BME280;37521;52.020;-1.740;2023-07-16T08:02:27;99035.41;;;13.79;100.00
51452;BME280;37521;52.020;-1.740;2023-07-16T08:04:55;99029.84;;;13.82;100.00
51452;BME280;37521;52.020;-1.740;2023-07-16T08:07:27;99036.63;;;13.86;100.00
51452;BME280;37521;52.020;-1.740;2023-07-16T08:09:56;99029.06;;;14.04;100.00
51452;BME280;37521;52.020;-1.740;2023-07-16T08:12:25;99024.28;;;14.20;100.00
51452;BME280;37521;52.020;-1.740;2023-07-16T08:14:53;99025.63;;;14.37;100.00
51452;BME280;37521;52.020;-1.740;2023-07-16T08:17:22;99040.66;;;14.49;100.00
51452;BME280;37521;52.020;-1.740;2023-07-16T08:19:52;99057.56;;;14.48;100.00
51452;BME280;37521;52.020;-1.740;2023-07-16T08:22:21;99057.28;;;14.40;100.00
51452;BME280;37521;52.020;-1.740;2023-07-16T08:24:51;99060.16;;;14.26;100.00
51452;BME280;37521;52.020;-1.740;2023-07-16T08:27:19;99063.94;;;14.10;100.00
51452;BME280;37521;52.020;-1.740;2023-07-16T08:29:47;99064.28;;;13.95;100.00
51452;BME280;37521;52.020;-1.740;2023-07-16T08:32:16;99065.94;;;13.84;100.00
51452;BME280;37521;52.020;-1.740;2023-07-16T08:34:45;99072.81;;;13.87;100.00
51452;BME280;37521;52.020;-1.740;2023-07-16T08:37:15;99068.22;;;13.89;100.00
51452;BME280;37521;52.020;-1.740;2023-07-16T08:39:43;99075.22;;;13.90;100.00
51452;BME280;37521;52.020;-1.740;2023-07-16T08:42:12;99086.28;;;13.84;100.00
51452;BME280;37521;52.020;-1.740;2023-07-16T08:44:42;99077.84;;;13.79;100.00
51452;BME280;37521;52.020;-1.740;2023-07-16T08:47:10;99078.06;;;13.76;100.00
51452;BME280;37521;52.020;-1.740;2023-07-16T08:49:40;99080.59;;;13.77;100.00
51452;BME280;37521;52.020;-1.740;2023-07-16T08:52:09;99094.81;;;13.76;100.00
51452;BME280;37521;52.020;-1.740;2023-07-16T08:54:40;99089.19;;;13.81;100.00
51452;BME280;37521;52.020;-1.740;2023-07-16T08:57:08;99095.84;;;13.86;100.00
51452;BME280;37521;52.020;-1.740;2023-07-16T08:59:38;99094.75;;;13.89;100.00
51452;BME280;37521;52.020;-1.740;2023-07-16T09:02:06;99098.56;;;13.98;100.00
51452;BME280;37521;52.020;-1.740;2023-07-16T09:04:35;99091.72;;;14.17;100.00
51452;BME280;37521;52.020;-1.740;2023-07-16T09:07:04;99102.16;;;14.32;100.00
51452;BME280;37521;52.020;-1.740;2023-07-16T09:09:33;99096.47;;;14.36;100.00
51452;BME280;37521;52.020;-1.740;2023-07-16T09:12:03;99099.50;;;14.43;100.00
51452;BME280;37521;52.020;-1.740;2023-07-16T09:14:32;99098.88;;;14.52;100.00
51452;BME280;37521;52.020;-1.740;2023-07-16T09:17:04;99108.03;;;14.48;100.00
51452;BME280;37521;52.020;-1.740;2023-07-16T09:19:32;99103.13;;;14.42;100.00
51452;BME280;37521;52.020;-1.740;2023-07-16T09:22:01;99112.31;;;14.38;100.00
51452;BME280;37521;52.020;-1.740;2023-07-16T09:24:29;99111.69;;;14.34;100.00
51452;BME280;37521;52.020;-1.740;2023-07-16T09:26:58;99115.19;;;14.35;100.00
51452;BME280;37521;52.020;-1.740;2023-07-16T09:29:30;99117.63;;;14.38;100.00
51452;BME280;37521;52.020;-1.740;2023-07-16T09:32:00;99123.00;;;14.49;100.00
51452;BME280;37521;52.020;-1.740;2023-07-16T09:34:30;99116.97;;;14.69;100.00
51452;BME280;37521;52.020;-1.740;2023-07-16T09:37:00;99121.22;;;14.83;100.00
51452;BME280;37521;52.020;-1.740;2023-07-16T09:39:29;99119.66;;;15.03;100.00
51452;BME280;37521;52.020;-1.740;2023-07-16T09:41:59;99112.06;;;15.21;100.00
51452;BME280;37521;52.020;-1.740;2023-07-16T09:44:31;99099.34;;;15.36;100.00
51452;BME280;37521;52.020;-1.740;2023-07-16T09:47:00;99115.16;;;15.48;100.00
51452;BME280;37521;52.020;-1.740;2023-07-16T09:49:28;99109.00;;;15.48;100.00
51452;BME280;37521;52.020;-1.740;2023-07-16T09:51:57;99121.09;;;15.52;100.00
51452;BME280;37521;52.020;-1.740;2023-07-16T09:54:31;99128.09;;;15.42;100.00
51452;BME280;37521;52.020;-1.740;2023-07-16T09:57:00;99120.13;;;15.42;100.00
51452;BME280;37521;52.020;-1.740;2023-07-16T09:59:32;99131.47;;;15.44;100.00
51452;BME280;37521;52.020;-1.740;2023-07-16T10:02:02;99133.56;;;15.29;100.00
51452;BME280;37521;52.020;-1.740;2023-07-16T10:04:37;99141.44;;;15.19;100.00
51452;BME280;37521;52.020;-1.740;2023-07-16T10:07:07;99143.84;;;15.11;100.00
51452;BME280;37521;52.020;-1.740;2023-07-16T10:09:51;99135.72;;;15.24;100.00
51452;BME280;37521;52.020;-1.740;2023-07-16T10:12:22;99145.25;;;15.38;100.00
51452;BME280;37521;52.020;-1.740;2023-07-16T10:14:54;99134.28;;;15.31;100.00
51452;BME280;37521;52.020;-1.740;2023-07-16T10:17:24;99145.25;;;15.38;100.00
51452;BME280;37521;52.020;-1.740;2023-07-16T10:19:57;99147.47;;;15.33;100.00
51452;BME280;37521;52.020;-1.740;2023-07-16T10:22:34;99147.09;;;15.15;100.00
51452;BME280;37521;52.020;-1.740;2023-07-16T10:25:07;99148.91;;;15.03;100.00
51452;BME280;37521;52.020;-1.740;2023-07-16T10:27:36;99146.13;;;15.16;100.00
51452;BME280;37521;52.020;-1.740;2023-07-16T10:30:07;99144.56;;;15.47;100.00
51452;BME280;37521;52.020;-1.740;2023-07-16T10:32:35;99135.44;;;15.61;100.00
51452;BME280;37521;52.020;-1.740;2023-07-16T10:35:06;99146.00;;;15.62;100.00
51452;BME280;37521;52.020;-1.740;2023-07-16T10:37:36;99145.16;;;15.62;100.00
51452;BME280;37521;52.020;-1.740;2023-07-16T10:40:06;99149.38;;;15.53;100.00
51452;BME280;37521;52.020;-1.740;2023-07-16T10:42:40;99164.50;;;15.08;100.00
51452;BME280;37521;52.020;-1.740;2023-07-16T10:45:12;99160.97;;;14.74;100.00
51452;BME280;37521;52.020;-1.740;2023-07-16T10:47:52;99159.84;;;14.54;100.00
51452;BME280;37521;52.020;-1.740;2023-07-16T10:50:21;99161.44;;;14.67;100.00
51452;BME280;37521;52.020;-1.740;2023-07-16T10:52:53;99155.06;;;14.92;100.00
51452;BME280;37521;52.020;-1.740;2023-07-16T10:55:25;99151.34;;;15.06;100.00
51452;BME280;37521;52.020;-1.740;2023-07-16T10:57:55;99156.91;;;15.14;100.00
51452;BME280;37521;52.020;-1.740;2023-07-16T11:00:26;99165.13;;;15.11;100.00
51452;BME280;37521;52.020;-1.740;2023-07-16T11:02:55;99188.28;;;14.87;100.00
51452;BME280;37521;52.020;-1.740;2023-07-16T11:05:24;99187.28;;;14.41;100.00
51452;BME280;37521;52.020;-1.740;2023-07-16T11:07:52;99186.63;;;14.03;100.00
51452;BME280;37521;52.020;-1.740;2023-07-16T11:10:23;99182.44;;;13.87;100.00
51452;BME280;37521;52.020;-1.740;2023-07-16T11:12:52;99189.09;;;13.69;100.00
51452;BME280;37521;52.020;-1.740;2023-07-16T11:15:31;99201.41;;;13.57;100.00
51452;BME280;37521;52.020;-1.740;2023-07-16T11:18:01;99203.47;;;13.54;100.00
51452;BME280;37521;52.020;-1.740;2023-07-16T11:20:30;99209.38;;;13.57;100.00
51452;BME280;37521;52.020;-1.740;2023-07-16T11:22:59;99187.84;;;13.62;100.00
51452;BME280;37521;52.020;-1.740;2023-07-16T11:25:28;99195.00;;;13.85;100.00
51452;BME280;37521;52.020;-1.740;2023-07-16T11:27:57;99193.22;;;13.97;100.00
51452;BME280;37521;52.020;-1.740;2023-07-16T11:30:26;99184.88;;;14.14;100.00
51452;BME280;37521;52.020;-1.740;2023-07-16T11:32:58;99196.28;;;14.28;100.00
51452;BME280;37521;52.020;-1.740;2023-07-16T11:35:29;99197.66;;;14.33;100.00
51452;BME280;37521;52.020;-1.740;2023-07-16T11:37:57;99207.56;;;14.66;100.00
51452;BME280;37521;52.020;-1.740;2023-07-16T11:40:26;99201.34;;;14.79;100.00
51452;BME280;37521;52.020;-1.740;2023-07-16T11:42:54;99203.78;;;14.93;100.00
51452;BME280;37521;52.020;-1.740;2023-07-16T11:45:24;99209.31;;;14.90;100.00
51452;BME280;37521;52.020;-1.740;2023-07-16T11:47:53;99202.38;;;14.76;100.00
51452;BME280;37521;52.020;-1.740;2023-07-16T11:50:25;99205.28;;;14.73;100.00
51452;BME280;37521;52.020;-1.740;2023-07-16T11:52:54;99219.97;;;14.55;100.00
51452;BME280;37521;52.020;-1.740;2023-07-16T11:55:23;99214.69;;;14.42;100.00
51452;BME280;37521;52.020;-1.740;2023-07-16T11:57:51;99218.72;;;14.24;100.00
51452;BME280;37521;52.020;-1.740;2023-07-16T12:00:20;99223.97;;;14.12;100.00
51452;BME280;37521;52.020;-1.740;2023-07-16T12:02:48;99232.09;;;13.98;100.00
51452;BME280;37521;52.020;-1.740;2023-07-16T12:05:19;99243.38;;;13.89;100.00
51452;BME280;37521;52.020;-1.740;2023-07-16T12:07:58;99238.91;;;13.89;100.00
51452;BME280;37521;52.020;-1.740;2023-07-16T12:10:26;99231.69;;;14.15;100.00
51452;BME280;37521;52.020;-1.740;2023-07-16T12:12:55;99232.31;;;14.43;100.00
51452;BME280;37521;52.020;-1.740;2023-07-16T12:15:23;99235.91;;;14.55;100.00
51452;BME280;37521;52.020;-1.740;2023-07-16T12:17:52;99241.16;;;14.67;100.00
51452;BME280;37521;52.020;-1.740;2023-07-16T12:20:20;99237.81;;;14.88;100.00
51452;BME280;37521;52.020;-1.740;2023-07-16T12:22:49;99234.97;;;15.13;100.00
51452;BME280;37521;52.020;-1.740;2023-07-16T12:25:19;99241.72;;;15.17;100.00
51452;BME280;37521;52.020;-1.740;2023-07-16T12:27:48;99251.91;;;15.12;100.00
51452;BME280;37521;52.020;-1.740;2023-07-16T12:30:20;99257.22;;;15.12;100.00
51452;BME280;37521;52.020;-1.740;2023-07-16T12:32:49;99249.72;;;15.17;100.00
51452;BME280;37521;52.020;-1.740;2023-07-16T12:35:18;99253.63;;;15.36;100.00
51452;BME280;37521;52.020;-1.740;2023-07-16T12:37:46;99240.13;;;15.72;100.00
51452;BME280;37521;52.020;-1.740;2023-07-16T12:40:15;99242.09;;;16.02;100.00
51452;BME280;37521;52.020;-1.740;2023-07-16T12:42:45;99245.41;;;15.95;100.00
51452;BME280;37521;52.020;-1.740;2023-07-16T12:45:14;99251.81;;;15.92;100.00
51452;BME280;37521;52.020;-1.740;2023-07-16T12:47:42;99247.09;;;15.96;100.00
51452;BME280;37521;52.020;-1.740;2023-07-16T12:50:11;99241.38;;;16.12;100.00
51452;BME280;37521;52.020;-1.740;2023-07-16T12:52:40;99245.84;;;16.11;100.00